createdAt,value
2018-01-24T00:00:05.283Z,5.60
2018-01-24T00:01:05.256Z,5.60
2018-01-24T00:02:05.091Z,5.60
2018-01-24T00:03:05.047Z,5.60
2018-01-24T00:04:05.111Z,5.60
2018-01-24T00:05:05.102Z,5.60
2018-01-24T00:06:05.377Z,5.60
2018-01-24T00:07:05.279Z,5.60
2018-01-24T00:08:05.046Z,5.60
2018-01-24T00:09:05.170Z,5.60
2018-01-24T00:10:05.164Z,5.60
2018-01-24T00:11:05.048Z,5.60
2018-01-24T00:12:05.076Z,5.60
2018-01-24T00:13:05.015Z,5.60
2018-01-24T00:14:05.449Z,5.60
2018-01-24T00:15:05.065Z,5.60
2018-01-24T00:16:05.024Z,5.60
2018-01-24T00:17:05.089Z,5.60
2018-01-24T00:18:05.028Z,5.60
2018-01-24T00:19:05.042Z,5.60
2018-01-24T00:20:05.474Z,5.60
2018-01-24T00:21:05.639Z,5.60
2018-01-24T00:22:05.543Z,5.60
2018-01-24T00:23:05.483Z,5.60
2018-01-24T00:24:04.917Z,5.60
2018-01-24T00:25:05.075Z,5.60
2018-01-24T00:26:05.082Z,5.60
2018-01-24T00:27:05.470Z,5.60
2018-01-24T00:28:05.695Z,5.60
2018-01-24T00:29:05.079Z,5.60
2018-01-24T00:30:05.086Z,5.60
2018-01-24T00:31:05.051Z,5.60
2018-01-24T00:32:05.403Z,5.60
2018-01-24T00:33:04.928Z,5.70
2018-01-24T00:34:04.895Z,5.60
2018-01-24T00:35:05.751Z,5.70
2018-01-24T00:36:05.068Z,5.70
2018-01-24T00:37:04.938Z,5.60
2018-01-24T00:38:05.347Z,5.70
2018-01-24T00:39:05.170Z,5.70
2018-01-24T00:40:05.060Z,5.70
2018-01-24T00:41:05.682Z,5.70
2018-01-24T00:42:05.434Z,5.60
2018-01-24T00:43:05.094Z,5.60
2018-01-24T00:44:04.993Z,5.60
2018-01-24T00:45:05.149Z,5.70
2018-01-24T00:46:05.026Z,5.70
2018-01-24T00:47:05.299Z,5.70
2018-01-24T00:48:05.601Z,5.70
2018-01-24T00:49:04.973Z,5.70
2018-01-24T00:50:05.150Z,5.70
2018-01-24T00:51:05.762Z,5.70
2018-01-24T00:52:05.547Z,5.70
2018-01-24T00:53:05.122Z,5.70
2018-01-24T00:54:05.186Z,5.70
2018-01-24T00:55:05.472Z,5.70
2018-01-24T00:56:05.447Z,5.70
2018-01-24T00:57:05.528Z,5.70
2018-01-24T00:58:05.380Z,5.70
2018-01-24T00:59:05.608Z,5.70
2018-01-24T01:00:05.424Z,5.70
2018-01-24T01:01:05.684Z,5.70
2018-01-24T01:02:05.652Z,5.70
2018-01-24T01:03:05.277Z,5.70
2018-01-24T01:04:05.428Z,5.70
2018-01-24T01:05:05.272Z,5.70
2018-01-24T01:06:05.434Z,5.70
2018-01-24T01:07:04.985Z,5.70
2018-01-24T01:08:04.887Z,5.70
2018-01-24T01:09:05.647Z,5.70
2018-01-24T01:10:05.510Z,5.70
2018-01-24T01:11:05.120Z,5.70
2018-01-24T01:12:05.063Z,5.60
2018-01-24T01:13:05.118Z,5.60
2018-01-24T01:14:04.978Z,5.60
2018-01-24T01:15:04.935Z,5.60
2018-01-24T01:16:05.195Z,5.60
2018-01-24T01:17:05.099Z,5.60
2018-01-24T01:18:04.988Z,5.60
2018-01-24T01:19:05.104Z,5.60
2018-01-24T01:20:04.927Z,5.60
2018-01-24T01:21:04.911Z,5.60
2018-01-24T01:22:05.241Z,5.60
2018-01-24T01:23:05.384Z,5.60
2018-01-24T01:24:05.433Z,5.60
2018-01-24T01:25:05.286Z,5.60
2018-01-24T01:26:05.144Z,5.60
2018-01-24T01:27:05.000Z,5.60
2018-01-24T01:28:05.400Z,5.60
2018-01-24T01:29:04.919Z,5.60
2018-01-24T01:30:05.335Z,5.60
2018-01-24T01:31:05.136Z,5.60
2018-01-24T01:32:05.193Z,5.60
2018-01-24T01:33:05.007Z,5.60
2018-01-24T01:34:05.113Z,5.60
2018-01-24T01:35:05.126Z,5.60
2018-01-24T01:36:05.190Z,5.60
2018-01-24T01:37:05.562Z,5.60
2018-01-24T01:38:05.914Z,5.60
2018-01-24T01:39:05.590Z,5.60
2018-01-24T01:40:04.996Z,5.60
2018-01-24T01:41:05.091Z,5.60
2018-01-24T01:42:05.372Z,5.60
2018-01-24T01:43:05.669Z,5.60
2018-01-24T01:44:05.379Z,5.60
2018-01-24T01:45:04.976Z,5.60
2018-01-24T01:46:05.128Z,5.60
2018-01-24T01:47:05.597Z,5.60
2018-01-24T01:48:05.128Z,5.60
2018-01-24T01:49:05.126Z,5.60
2018-01-24T01:50:05.152Z,5.70
2018-01-24T01:51:05.800Z,5.70
2018-01-24T01:52:05.101Z,5.60
2018-01-24T01:53:05.158Z,5.70
2018-01-24T01:54:05.795Z,5.70
2018-01-24T01:55:05.121Z,5.70
2018-01-24T01:56:05.144Z,5.70
2018-01-24T01:57:05.208Z,5.70
2018-01-24T01:58:05.049Z,5.70
2018-01-24T01:59:05.311Z,5.70
2018-01-24T02:00:05.558Z,5.70
2018-01-24T02:01:05.568Z,5.70
2018-01-24T02:02:05.310Z,5.70
2018-01-24T02:03:05.172Z,5.70
2018-01-24T02:04:05.576Z,5.70
2018-01-24T02:05:04.975Z,5.70
2018-01-24T02:06:05.522Z,5.70
2018-01-24T02:07:05.157Z,5.70
2018-01-24T02:08:05.130Z,5.70
2018-01-24T02:09:05.764Z,5.70
2018-01-24T02:10:05.649Z,5.70
2018-01-24T02:11:05.060Z,5.70
2018-01-24T02:12:05.569Z,5.70
2018-01-24T02:13:05.372Z,5.70
2018-01-24T02:14:05.047Z,5.70
2018-01-24T02:15:04.982Z,5.70
2018-01-24T02:16:05.154Z,5.70
2018-01-24T02:17:05.176Z,5.70
2018-01-24T02:18:05.060Z,5.70
2018-01-24T02:19:05.174Z,5.70
2018-01-24T02:20:05.133Z,5.70
2018-01-24T02:21:05.083Z,5.70
2018-01-24T02:22:05.670Z,5.70
2018-01-24T02:23:05.551Z,5.70
2018-01-24T02:24:05.711Z,5.70
2018-01-24T02:25:05.372Z,5.70
2018-01-24T02:26:05.210Z,5.70
2018-01-24T02:27:05.024Z,5.70
2018-01-24T02:28:05.529Z,5.70
2018-01-24T02:29:05.382Z,5.70
2018-01-24T02:30:05.637Z,5.70
2018-01-24T02:31:05.189Z,5.70
2018-01-24T02:32:05.188Z,5.70
2018-01-24T02:33:05.048Z,5.70
2018-01-24T02:34:05.200Z,5.70
2018-01-24T02:35:05.054Z,5.70
2018-01-24T02:36:05.431Z,5.70
2018-01-24T02:37:05.658Z,5.70
2018-01-24T02:38:04.960Z,5.80
2018-01-24T02:39:04.998Z,5.80
2018-01-24T02:40:05.048Z,5.70
2018-01-24T02:41:05.006Z,5.80
2018-01-24T02:42:05.204Z,5.80
2018-01-24T02:43:05.059Z,5.80
2018-01-24T02:44:05.072Z,5.80
2018-01-24T02:45:05.133Z,5.80
2018-01-24T02:46:04.975Z,5.80
2018-01-24T02:47:05.049Z,5.80
2018-01-24T02:48:05.648Z,5.80
2018-01-24T02:49:05.506Z,5.80
2018-01-24T02:50:05.447Z,5.80
2018-01-24T02:51:05.180Z,5.80
2018-01-24T02:52:05.581Z,5.80
2018-01-24T02:53:05.616Z,5.80
2018-01-24T02:54:05.354Z,5.80
2018-01-24T02:55:05.625Z,5.80
2018-01-24T02:56:05.263Z,5.80
2018-01-24T02:57:05.256Z,5.80
2018-01-24T02:58:05.353Z,5.80
2018-01-24T02:59:05.603Z,5.80
2018-01-24T03:00:05.324Z,5.80
2018-01-24T03:01:05.186Z,5.80
2018-01-24T03:02:05.250Z,5.80
2018-01-24T03:03:05.371Z,5.80
2018-01-24T03:04:05.191Z,5.80
2018-01-24T03:05:05.254Z,5.80
2018-01-24T03:06:05.199Z,5.80
2018-01-24T03:07:05.231Z,5.80
2018-01-24T03:08:05.097Z,5.80
2018-01-24T03:09:05.215Z,5.90
2018-01-24T03:10:05.244Z,5.80
2018-01-24T03:11:05.109Z,5.90
2018-01-24T03:12:05.017Z,5.80
2018-01-24T03:13:05.585Z,5.90
2018-01-24T03:14:05.107Z,5.90
2018-01-24T03:15:05.276Z,5.90
2018-01-24T03:16:05.364Z,5.90
2018-01-24T03:17:05.273Z,5.90
2018-01-24T03:18:05.234Z,5.90
2018-01-24T03:19:05.036Z,5.90
2018-01-24T03:20:05.615Z,5.90
2018-01-24T03:21:05.615Z,5.90
2018-01-24T03:22:05.632Z,5.90
2018-01-24T03:23:05.006Z,5.90
2018-01-24T03:24:05.202Z,5.90
2018-01-24T03:25:05.570Z,5.90
2018-01-24T03:26:05.644Z,5.90
2018-01-24T03:27:04.995Z,5.90
2018-01-24T03:28:05.229Z,5.90
2018-01-24T03:29:05.222Z,5.90
2018-01-24T03:30:05.248Z,5.90
2018-01-24T03:31:05.148Z,5.90
2018-01-24T03:32:05.120Z,5.90
2018-01-24T03:33:05.357Z,5.90
2018-01-24T03:34:05.643Z,5.90
2018-01-24T03:35:05.355Z,6.00
2018-01-24T03:36:05.669Z,6.00
2018-01-24T03:37:05.616Z,6.00
2018-01-24T03:38:05.254Z,6.00
2018-01-24T03:39:05.322Z,6.00
2018-01-24T03:40:05.085Z,6.00
2018-01-24T03:41:05.113Z,6.00
2018-01-24T03:42:05.253Z,6.00
2018-01-24T03:43:05.140Z,6.00
2018-01-24T03:44:05.235Z,6.00
2018-01-24T03:45:05.235Z,6.00
2018-01-24T03:46:05.215Z,6.00
2018-01-24T03:47:05.142Z,6.00
2018-01-24T03:48:05.137Z,6.00
2018-01-24T03:49:05.261Z,6.00
2018-01-24T03:50:05.052Z,6.00
2018-01-24T03:51:05.148Z,6.00
2018-01-24T03:52:05.357Z,6.00
2018-01-24T03:53:05.253Z,6.00
2018-01-24T03:54:05.644Z,6.00
2018-01-24T03:55:05.130Z,6.00
2018-01-24T03:56:05.101Z,6.00
2018-01-24T03:57:05.127Z,6.00
2018-01-24T03:58:05.282Z,6.00
2018-01-24T03:59:05.326Z,5.90
2018-01-24T04:00:05.293Z,5.90
2018-01-24T04:01:05.015Z,5.90
2018-01-24T04:02:05.164Z,5.90
2018-01-24T04:03:05.548Z,5.90
2018-01-24T04:04:05.518Z,5.90
2018-01-24T04:05:04.768Z,5.90
2018-01-24T04:06:05.054Z,5.90
2018-01-24T04:07:05.664Z,5.90
2018-01-24T04:08:05.309Z,5.90
2018-01-24T04:09:05.122Z,5.90
2018-01-24T04:10:05.317Z,5.80
2018-01-24T04:11:05.275Z,5.80
2018-01-24T04:12:05.341Z,5.80
2018-01-24T04:13:05.404Z,5.80
2018-01-24T04:14:05.698Z,5.80
2018-01-24T04:15:05.086Z,5.80
2018-01-24T04:16:05.446Z,5.80
2018-01-24T04:17:05.076Z,5.80
2018-01-24T04:18:05.215Z,5.80
2018-01-24T04:19:05.068Z,5.80
2018-01-24T04:20:05.556Z,5.80
2018-01-24T04:21:05.712Z,5.80
2018-01-24T04:22:05.628Z,5.80
2018-01-24T04:23:05.400Z,5.80
2018-01-24T04:24:05.791Z,5.80
2018-01-24T04:25:05.746Z,5.80
2018-01-24T04:26:04.865Z,5.80
2018-01-24T04:27:05.251Z,5.80
2018-01-24T04:28:05.291Z,5.80
2018-01-24T04:29:05.261Z,5.80
2018-01-24T04:30:05.345Z,5.80
2018-01-24T04:31:05.055Z,5.80
2018-01-24T04:32:05.559Z,5.80
2018-01-24T04:33:05.528Z,5.80
2018-01-24T04:34:05.414Z,5.80
2018-01-24T04:35:05.088Z,5.80
2018-01-24T04:36:05.329Z,5.80
2018-01-24T04:37:05.094Z,5.80
2018-01-24T04:38:05.304Z,5.80
2018-01-24T04:39:05.255Z,5.80
2018-01-24T04:40:05.376Z,5.80
2018-01-24T04:41:05.090Z,5.80
2018-01-24T04:42:05.156Z,5.80
2018-01-24T04:43:05.099Z,5.80
2018-01-24T04:44:05.145Z,5.80
2018-01-24T04:45:05.292Z,5.80
2018-01-24T04:46:05.157Z,5.80
2018-01-24T04:47:05.359Z,5.80
2018-01-24T04:48:05.152Z,5.80
2018-01-24T04:49:05.485Z,5.80
2018-01-24T04:50:05.621Z,5.80
2018-01-24T04:51:05.381Z,5.80
2018-01-24T04:52:05.324Z,5.80
2018-01-24T04:53:05.343Z,5.90
2018-01-24T04:54:05.325Z,5.90
2018-01-24T04:55:05.105Z,5.90
2018-01-24T04:56:05.311Z,5.90
2018-01-24T04:57:05.696Z,5.90
2018-01-24T04:58:05.326Z,5.90
2018-01-24T04:59:05.262Z,5.90
2018-01-24T05:00:05.389Z,5.90
2018-01-24T05:01:05.310Z,5.90
2018-01-24T05:02:05.297Z,5.90
2018-01-24T05:03:05.317Z,5.90
2018-01-24T05:04:04.890Z,5.90
2018-01-24T05:05:05.167Z,5.90
2018-01-24T05:06:05.728Z,5.90
2018-01-24T05:07:05.342Z,5.90
2018-01-24T05:08:05.565Z,5.90
2018-01-24T05:09:05.661Z,5.90
2018-01-24T05:10:05.329Z,5.90
2018-01-24T05:11:05.202Z,5.90
2018-01-24T05:12:05.294Z,5.90
2018-01-24T05:13:05.261Z,5.90
2018-01-24T05:14:05.402Z,5.90
2018-01-24T05:15:05.366Z,5.90
2018-01-24T05:16:05.498Z,5.90
2018-01-24T05:17:05.200Z,5.90
2018-01-24T05:18:05.304Z,5.90
2018-01-24T05:19:04.887Z,5.90
2018-01-24T05:20:05.292Z,5.90
2018-01-24T05:21:05.756Z,5.90
2018-01-24T05:22:05.325Z,5.90
2018-01-24T05:23:05.195Z,5.90
2018-01-24T05:24:05.231Z,5.90
2018-01-24T05:25:05.890Z,5.90
2018-01-24T05:26:05.312Z,5.90
2018-01-24T05:27:05.451Z,5.90
2018-01-24T05:28:05.107Z,5.90
2018-01-24T05:29:05.295Z,5.90
2018-01-24T05:30:05.402Z,5.90
2018-01-24T05:31:05.110Z,5.90
2018-01-24T05:32:05.171Z,5.90
2018-01-24T05:33:05.411Z,5.90
2018-01-24T05:34:05.270Z,5.90
2018-01-24T05:35:04.980Z,5.90
2018-01-24T05:36:05.306Z,5.90
2018-01-24T05:37:05.402Z,5.90
2018-01-24T05:38:05.106Z,5.90
2018-01-24T05:39:05.720Z,5.80
2018-01-24T05:40:05.349Z,5.90
2018-01-24T05:41:05.119Z,5.90
2018-01-24T05:42:05.525Z,5.80
2018-01-24T05:43:05.352Z,5.80
2018-01-24T05:44:05.425Z,5.80
2018-01-24T05:45:05.151Z,5.80
2018-01-24T05:46:05.377Z,5.80
2018-01-24T05:47:05.359Z,5.80
2018-01-24T05:48:05.535Z,5.80
2018-01-24T05:49:05.241Z,5.80
2018-01-24T05:50:05.086Z,5.80
2018-01-24T05:51:05.106Z,5.80
2018-01-24T05:52:05.169Z,5.80
2018-01-24T05:53:05.375Z,5.80
2018-01-24T05:54:05.428Z,5.80
2018-01-24T05:55:05.327Z,5.80
2018-01-24T05:56:05.201Z,5.80
2018-01-24T05:57:05.147Z,5.80
2018-01-24T05:58:05.596Z,5.80
2018-01-24T05:59:05.218Z,5.80
2018-01-24T06:00:05.156Z,5.80
2018-01-24T06:01:05.209Z,5.80
2018-01-24T06:02:05.663Z,5.80
2018-01-24T06:03:05.549Z,5.80
2018-01-24T06:04:05.385Z,5.80
2018-01-24T06:05:05.474Z,5.80
2018-01-24T06:06:05.380Z,5.80
2018-01-24T06:07:05.210Z,5.80
2018-01-24T06:08:04.946Z,5.80
2018-01-24T06:09:04.996Z,5.80
2018-01-24T06:10:05.583Z,5.80
2018-01-24T06:11:05.167Z,5.80
2018-01-24T06:12:05.403Z,5.80
2018-01-24T06:13:05.469Z,5.80
2018-01-24T06:14:05.351Z,5.90
2018-01-24T06:15:05.235Z,5.80
2018-01-24T06:16:05.411Z,5.80
2018-01-24T06:17:05.520Z,5.80
2018-01-24T06:18:05.696Z,5.90
2018-01-24T06:19:05.463Z,5.90
2018-01-24T06:20:05.413Z,5.90
2018-01-24T06:21:05.612Z,5.90
2018-01-24T06:22:04.940Z,5.90
2018-01-24T06:23:05.186Z,5.90
2018-01-24T06:24:04.881Z,5.90
2018-01-24T06:25:05.363Z,5.90
2018-01-24T06:26:05.740Z,5.90
2018-01-24T06:27:05.379Z,5.90
2018-01-24T06:28:05.385Z,5.90
2018-01-24T06:29:05.290Z,5.90
2018-01-24T06:30:05.677Z,5.90
2018-01-24T06:31:05.465Z,6.00
2018-01-24T06:32:05.421Z,6.00
2018-01-24T06:33:05.188Z,6.00
2018-01-24T06:34:05.326Z,6.00
2018-01-24T06:35:05.423Z,6.00
2018-01-24T06:36:05.363Z,6.00
2018-01-24T06:37:05.462Z,6.00
2018-01-24T06:38:05.598Z,6.00
2018-01-24T06:39:05.617Z,6.00
2018-01-24T06:40:05.495Z,6.00
2018-01-24T06:41:05.186Z,6.00
2018-01-24T06:42:04.989Z,6.00
2018-01-24T06:43:05.320Z,6.10
2018-01-24T06:44:05.473Z,6.10
2018-01-24T06:45:05.556Z,6.10
2018-01-24T06:46:05.299Z,6.10
2018-01-24T06:47:05.156Z,6.10
2018-01-24T06:48:05.645Z,6.10
2018-01-24T06:49:05.425Z,6.10
2018-01-24T06:50:05.456Z,6.10
2018-01-24T06:51:05.440Z,6.10
2018-01-24T06:52:05.639Z,6.10
2018-01-24T06:53:05.248Z,6.10
2018-01-24T06:54:05.479Z,6.10
2018-01-24T06:55:05.244Z,6.10
2018-01-24T06:56:05.397Z,6.10
2018-01-24T06:57:05.311Z,6.10
2018-01-24T06:58:05.197Z,6.10
2018-01-24T06:59:05.196Z,6.10
2018-01-24T07:00:05.505Z,6.10
2018-01-24T07:01:05.155Z,6.10
2018-01-24T07:02:05.559Z,6.20
2018-01-24T07:03:05.715Z,6.20
2018-01-24T07:04:05.547Z,6.20
2018-01-24T07:05:05.641Z,6.20
2018-01-24T07:06:05.927Z,6.20
2018-01-24T07:07:05.792Z,6.20
2018-01-24T07:08:05.245Z,6.20
2018-01-24T07:09:05.277Z,6.20
2018-01-24T07:10:04.911Z,6.20
2018-01-24T07:11:05.207Z,6.20
2018-01-24T07:12:05.360Z,6.20
2018-01-24T07:13:05.478Z,6.30
2018-01-24T07:14:04.971Z,6.30
2018-01-24T07:15:05.389Z,6.30
2018-01-24T07:16:05.417Z,6.30
2018-01-24T07:17:05.764Z,6.30
2018-01-24T07:18:05.517Z,6.30
2018-01-24T07:19:05.520Z,6.30
2018-01-24T07:20:05.195Z,6.30
2018-01-24T07:21:05.669Z,6.30
2018-01-24T07:22:05.244Z,6.30
2018-01-24T07:23:05.633Z,6.30
2018-01-24T07:24:05.458Z,6.30
2018-01-24T07:25:05.530Z,6.30
2018-01-24T07:26:05.030Z,6.30
2018-01-24T07:27:05.390Z,6.30
2018-01-24T07:28:04.911Z,6.30
2018-01-24T07:29:05.186Z,6.30
2018-01-24T07:30:05.561Z,6.30
2018-01-24T07:31:05.403Z,6.30
2018-01-24T07:32:05.599Z,6.40
2018-01-24T07:33:05.493Z,6.40
2018-01-24T07:34:05.589Z,6.40
2018-01-24T07:35:05.505Z,6.40
2018-01-24T07:36:05.665Z,6.40
2018-01-24T07:37:05.493Z,6.40
2018-01-24T07:38:05.412Z,6.40
2018-01-24T07:39:05.219Z,6.40
2018-01-24T07:40:05.235Z,6.40
2018-01-24T07:41:05.850Z,6.40
2018-01-24T07:42:05.407Z,6.40
2018-01-24T07:43:05.558Z,6.40
2018-01-24T07:44:05.424Z,6.40
2018-01-24T07:45:05.828Z,6.40
2018-01-24T07:46:05.413Z,6.50
2018-01-24T07:47:05.728Z,6.50
2018-01-24T07:48:05.822Z,6.50
2018-01-24T07:49:20.405Z,6.50
2018-01-24T07:50:05.456Z,6.50
2018-01-24T07:51:05.283Z,6.50
2018-01-24T07:52:05.438Z,6.50
2018-01-24T07:53:05.613Z,6.50
2018-01-24T07:54:05.638Z,6.50
2018-01-24T07:55:05.623Z,6.50
2018-01-24T07:56:05.883Z,6.50
2018-01-24T07:57:05.648Z,6.50
2018-01-24T07:58:05.831Z,6.50
2018-01-24T07:59:05.427Z,6.60
2018-01-24T08:00:05.339Z,6.60
2018-01-24T08:01:05.466Z,6.60
2018-01-24T08:02:05.574Z,6.60
2018-01-24T08:03:05.527Z,6.60
2018-01-24T08:04:05.649Z,6.60
2018-01-24T08:05:05.323Z,6.60
2018-01-24T08:06:05.368Z,6.60
2018-01-24T08:07:05.478Z,6.60
2018-01-24T08:08:05.482Z,6.60
2018-01-24T08:09:05.622Z,6.60
2018-01-24T08:10:05.253Z,6.60
2018-01-24T08:11:04.968Z,6.60
2018-01-24T08:12:05.297Z,6.60
2018-01-24T08:13:05.478Z,6.60
2018-01-24T08:14:05.651Z,6.70
2018-01-24T08:15:05.279Z,6.70
2018-01-24T08:16:05.483Z,6.70
2018-01-24T08:17:04.998Z,6.70
2018-01-24T08:18:05.285Z,6.70
2018-01-24T08:19:05.283Z,6.70
2018-01-24T08:20:05.346Z,6.70
2018-01-24T08:21:04.904Z,6.70
2018-01-24T08:22:05.355Z,6.70
2018-01-24T08:23:05.338Z,6.70
2018-01-24T08:24:04.999Z,6.70
2018-01-24T08:25:05.542Z,6.80
2018-01-24T08:26:05.547Z,6.80
2018-01-24T08:27:05.477Z,6.80
2018-01-24T08:28:05.554Z,6.80
2018-01-24T08:29:05.591Z,6.80
2018-01-24T08:30:05.630Z,6.80
2018-01-24T08:31:05.585Z,6.80
2018-01-24T08:32:05.388Z,6.80
2018-01-24T08:33:05.571Z,6.80
2018-01-24T08:34:05.765Z,6.80
2018-01-24T08:35:04.876Z,6.80
2018-01-24T08:36:05.384Z,6.80
2018-01-24T08:37:05.286Z,6.90
2018-01-24T08:38:05.355Z,6.90
2018-01-24T08:39:04.992Z,6.90
2018-01-24T08:40:05.605Z,6.90
2018-01-24T08:41:05.487Z,6.90
2018-01-24T08:42:05.079Z,6.90
2018-01-24T08:43:05.320Z,6.90
2018-01-24T08:44:05.486Z,6.90
2018-01-24T08:45:05.525Z,6.90
2018-01-24T08:46:05.445Z,7.00
2018-01-24T08:47:05.500Z,7.00
2018-01-24T08:48:05.507Z,7.00
2018-01-24T08:49:05.640Z,7.00
2018-01-24T08:50:04.930Z,7.00
2018-01-24T08:51:05.030Z,7.10
2018-01-24T08:52:04.987Z,7.10
2018-01-24T08:53:05.261Z,7.10
2018-01-24T08:54:05.361Z,7.10
2018-01-24T08:55:05.451Z,7.10
2018-01-24T08:56:05.091Z,7.20
2018-01-24T08:57:05.620Z,7.20
2018-01-24T08:58:04.979Z,7.20
2018-01-24T08:59:04.991Z,7.20
2018-01-24T09:00:05.000Z,7.30
2018-01-24T09:01:05.619Z,7.30
2018-01-24T09:02:05.681Z,7.30
2018-01-24T09:03:05.597Z,7.30
2018-01-24T09:04:05.547Z,7.40
2018-01-24T09:05:05.299Z,7.40
2018-01-24T09:06:05.572Z,7.40
2018-01-24T09:07:05.075Z,7.40
2018-01-24T09:08:05.556Z,7.40
2018-01-24T09:09:05.422Z,7.40
2018-01-24T09:10:05.406Z,7.40
2018-01-24T09:11:05.326Z,7.50
2018-01-24T09:12:05.559Z,7.40
2018-01-24T09:13:05.608Z,7.50
2018-01-24T09:14:05.546Z,7.50
2018-01-24T09:15:05.591Z,7.50
2018-01-24T09:16:05.517Z,7.50
2018-01-24T09:17:05.387Z,7.50
2018-01-24T09:18:05.006Z,7.50
2018-01-24T09:19:05.600Z,7.50
2018-01-24T09:20:05.596Z,7.60
2018-01-24T09:21:05.051Z,7.60
2018-01-24T09:22:05.690Z,7.60
2018-01-24T09:23:05.539Z,7.60
2018-01-24T09:24:05.346Z,7.60
2018-01-24T09:25:05.584Z,7.60
2018-01-24T09:26:04.978Z,7.60
2018-01-24T09:27:05.575Z,7.70
2018-01-24T09:28:05.508Z,7.70
2018-01-24T09:29:05.347Z,7.70
2018-01-24T09:30:05.884Z,7.70
2018-01-24T09:31:05.440Z,7.70
2018-01-24T09:32:05.014Z,7.80
2018-01-24T09:33:05.427Z,7.80
2018-01-24T09:34:05.604Z,7.80
2018-01-24T09:35:04.931Z,7.80
2018-01-24T09:36:05.344Z,7.80
2018-01-24T09:37:05.507Z,7.90
2018-01-24T09:38:05.332Z,7.90
2018-01-24T09:39:05.384Z,7.90
2018-01-24T09:40:05.764Z,8.00
2018-01-24T09:41:05.535Z,8.00
2018-01-24T09:42:05.548Z,8.10
2018-01-24T09:43:05.351Z,8.10
2018-01-24T09:44:05.395Z,8.10
2018-01-24T09:45:05.473Z,8.10
2018-01-24T09:46:05.540Z,8.20
2018-01-24T09:47:05.566Z,8.20
2018-01-24T09:48:04.964Z,8.20
2018-01-24T09:49:05.402Z,8.30
2018-01-24T09:50:05.592Z,8.30
2018-01-24T09:51:05.397Z,8.40
2018-01-24T09:52:05.325Z,8.40
2018-01-24T09:53:04.973Z,8.50
2018-01-24T09:54:05.337Z,8.50
2018-01-24T09:55:06.343Z,8.50
2018-01-24T09:56:05.327Z,8.60
2018-01-24T09:57:05.411Z,8.60
2018-01-24T09:58:05.392Z,8.70
2018-01-24T09:59:05.396Z,8.70
2018-01-24T10:00:05.307Z,8.80
2018-01-24T10:01:05.582Z,8.80
2018-01-24T10:02:05.055Z,8.80
2018-01-24T10:03:05.408Z,8.80
2018-01-24T10:04:05.788Z,8.90
2018-01-24T10:05:05.395Z,8.90
2018-01-24T10:06:05.494Z,8.90
2018-01-24T10:07:05.327Z,8.90
2018-01-24T10:08:05.600Z,8.90
2018-01-24T10:09:05.145Z,8.90
2018-01-24T10:10:05.580Z,8.90
2018-01-24T10:11:05.670Z,8.90
2018-01-24T10:12:05.379Z,9.00
2018-01-24T10:13:05.357Z,9.00
2018-01-24T10:14:05.011Z,9.00
2018-01-24T10:15:05.654Z,9.00
2018-01-24T10:16:05.466Z,9.00
2018-01-24T10:17:05.578Z,9.00
2018-01-24T10:18:05.359Z,9.00
2018-01-24T10:19:05.597Z,9.00
2018-01-24T10:20:05.692Z,9.00
2018-01-24T10:21:05.383Z,9.00
2018-01-24T10:22:05.483Z,9.00
2018-01-24T10:23:04.938Z,9.00
2018-01-24T10:24:05.429Z,9.10
2018-01-24T10:25:05.607Z,9.10
2018-01-24T10:26:05.786Z,9.10
2018-01-24T10:27:05.415Z,9.10
2018-01-24T10:28:05.421Z,9.10
2018-01-24T10:29:05.584Z,9.10
2018-01-24T10:30:05.571Z,9.10
2018-01-24T10:31:05.738Z,9.10
2018-01-24T10:32:05.371Z,9.10
2018-01-24T10:33:05.377Z,9.10
2018-01-24T10:34:05.672Z,9.10
2018-01-24T10:35:05.166Z,9.10
2018-01-24T10:36:05.658Z,9.10
2018-01-24T10:37:05.026Z,9.10
2018-01-24T10:38:05.743Z,9.10
2018-01-24T10:39:05.429Z,9.10
2018-01-24T10:40:05.605Z,9.10
2018-01-24T10:41:05.590Z,9.10
2018-01-24T10:42:05.696Z,9.10
2018-01-24T10:43:05.387Z,9.10
2018-01-24T10:44:05.436Z,9.10
2018-01-24T10:45:05.388Z,9.10
2018-01-24T10:46:05.705Z,9.10
2018-01-24T10:47:05.523Z,9.10
2018-01-24T10:48:04.987Z,9.10
2018-01-24T10:49:04.830Z,9.10
2018-01-24T10:50:05.377Z,9.10
2018-01-24T10:51:05.474Z,9.10
2018-01-24T10:52:05.835Z,9.10
2018-01-24T10:53:05.390Z,9.20
2018-01-24T10:54:05.065Z,9.20
2018-01-24T10:55:05.478Z,9.20
2018-01-24T10:56:05.725Z,9.20
2018-01-24T10:57:05.486Z,9.20
2018-01-24T10:58:05.619Z,9.20
2018-01-24T10:59:05.460Z,9.30
2018-01-24T11:00:05.050Z,9.30
2018-01-24T11:01:05.038Z,9.30
2018-01-24T11:02:05.208Z,9.30
2018-01-24T11:03:05.646Z,9.30
2018-01-24T11:04:05.420Z,9.30
2018-01-24T11:05:05.174Z,9.40
2018-01-24T11:06:05.052Z,9.40
2018-01-24T11:07:05.114Z,9.40
2018-01-24T11:08:05.533Z,9.40
2018-01-24T11:09:05.636Z,9.40
2018-01-24T11:10:05.710Z,9.40
2018-01-24T11:11:05.881Z,9.50
2018-01-24T11:12:05.458Z,9.50
2018-01-24T11:13:05.387Z,9.50
2018-01-24T11:14:05.026Z,9.50
2018-01-24T11:15:05.217Z,9.50
2018-01-24T11:16:05.449Z,9.50
2018-01-24T11:17:05.500Z,9.50
2018-01-24T11:18:05.119Z,9.50
2018-01-24T11:19:05.420Z,9.50
2018-01-24T11:20:05.409Z,9.50
2018-01-24T11:21:05.522Z,9.50
2018-01-24T11:22:05.100Z,9.50
2018-01-24T11:23:05.722Z,9.50
2018-01-24T11:24:05.399Z,9.50
2018-01-24T11:25:05.641Z,9.50
2018-01-24T11:26:05.760Z,9.60
2018-01-24T11:27:05.081Z,9.60
2018-01-24T11:28:05.784Z,9.60
2018-01-24T11:29:05.010Z,9.60
2018-01-24T11:30:05.602Z,9.70
2018-01-24T11:31:05.652Z,9.70
2018-01-24T11:32:05.619Z,9.70
2018-01-24T11:33:05.636Z,9.70
2018-01-24T11:34:05.613Z,9.70
2018-01-24T11:35:05.017Z,9.80
2018-01-24T11:36:05.635Z,9.80
2018-01-24T11:37:05.491Z,9.80
2018-01-24T11:38:05.660Z,9.80
2018-01-24T11:39:05.516Z,9.80
2018-01-24T11:40:05.133Z,9.90
2018-01-24T11:41:05.150Z,9.90
2018-01-24T11:42:04.812Z,9.90
2018-01-24T11:43:05.535Z,9.90
2018-01-24T11:44:05.497Z,9.90
2018-01-24T11:45:05.108Z,10.00
2018-01-24T11:46:05.427Z,10.00
2018-01-24T11:47:05.153Z,10.00
2018-01-24T11:48:05.748Z,10.00
2018-01-24T11:49:05.124Z,10.00
2018-01-24T11:50:05.459Z,10.10
2018-01-24T11:51:05.430Z,10.10
2018-01-24T11:52:05.119Z,10.10
2018-01-24T11:53:05.461Z,10.10
2018-01-24T11:54:05.159Z,10.10
2018-01-24T11:55:05.143Z,10.10
2018-01-24T11:56:05.428Z,10.10
2018-01-24T11:57:05.634Z,10.10
2018-01-24T11:58:05.195Z,10.10
2018-01-24T11:59:05.657Z,10.10
2018-01-24T12:00:05.559Z,10.10
2018-01-24T12:01:05.058Z,10.10
2018-01-24T12:02:05.150Z,10.10
2018-01-24T12:03:05.466Z,10.10
2018-01-24T12:04:05.530Z,10.10
2018-01-24T12:05:05.121Z,10.10
2018-01-24T12:06:05.471Z,10.10
2018-01-24T12:07:05.700Z,10.10
2018-01-24T12:08:05.743Z,10.10
2018-01-24T12:09:05.108Z,10.10
2018-01-24T12:10:05.737Z,10.10
2018-01-24T12:11:05.438Z,10.10
2018-01-24T12:12:04.826Z,10.10
2018-01-24T12:13:05.668Z,10.10
2018-01-24T12:14:05.435Z,10.10
2018-01-24T12:15:05.532Z,10.10
2018-01-24T12:16:05.445Z,10.10
2018-01-24T12:17:05.681Z,10.10
2018-01-24T12:18:05.869Z,10.10
2018-01-24T12:19:05.936Z,10.10
2018-01-24T12:20:05.657Z,10.10
2018-01-24T12:21:05.450Z,10.10
2018-01-24T12:22:05.487Z,10.10
2018-01-24T12:23:09.665Z,10.10
2018-01-24T12:24:05.694Z,10.20
2018-01-24T12:25:10.594Z,10.20
2018-01-24T12:26:05.708Z,10.20
2018-01-24T12:27:05.645Z,10.20
2018-01-24T12:28:05.079Z,10.20
2018-01-24T12:29:05.437Z,10.20
2018-01-24T12:30:05.696Z,10.30
2018-01-24T12:31:05.105Z,10.30
2018-01-24T12:32:05.281Z,10.30
2018-01-24T12:33:05.467Z,10.30
2018-01-24T12:34:05.844Z,10.30
2018-01-24T12:35:05.479Z,10.30
2018-01-24T12:36:05.747Z,10.30
2018-01-24T12:37:05.144Z,10.40
2018-01-24T12:38:05.168Z,10.40
2018-01-24T12:39:05.118Z,10.40
2018-01-24T12:40:05.678Z,10.40
2018-01-24T12:41:05.566Z,10.40
2018-01-24T12:42:05.191Z,10.40
2018-01-24T12:43:05.576Z,10.40
2018-01-24T12:44:05.839Z,10.40
2018-01-24T12:45:06.098Z,10.40
2018-01-24T12:46:05.645Z,10.40
2018-01-24T12:47:05.527Z,10.40
2018-01-24T12:48:05.193Z,10.40
2018-01-24T12:49:05.470Z,10.40
2018-01-24T12:50:05.152Z,10.40
2018-01-24T12:51:05.556Z,10.40
2018-01-24T12:52:05.526Z,10.40
2018-01-24T12:53:05.697Z,10.40
2018-01-24T12:54:05.773Z,10.30
2018-01-24T12:55:05.595Z,10.30
2018-01-24T12:56:05.108Z,10.30
2018-01-24T12:57:05.680Z,10.30
2018-01-24T12:58:05.447Z,10.30
2018-01-24T12:59:05.882Z,10.30
2018-01-24T13:00:05.086Z,10.30
2018-01-24T13:01:05.547Z,10.20
2018-01-24T13:02:05.552Z,10.20
2018-01-24T13:03:05.753Z,10.20
2018-01-24T13:04:05.587Z,10.20
2018-01-24T13:05:05.548Z,10.20
2018-01-24T13:06:05.723Z,10.20
2018-01-24T13:07:05.188Z,10.20
2018-01-24T13:08:05.672Z,10.20
2018-01-24T13:09:05.549Z,10.20
2018-01-24T13:10:05.790Z,10.10
2018-01-24T13:11:05.156Z,10.10
2018-01-24T13:12:05.821Z,10.10
2018-01-24T13:13:05.648Z,10.10
2018-01-24T13:14:05.749Z,10.10
2018-01-24T13:15:05.586Z,10.10